createdAt,value
2022-08-12T00:01:10.390Z,24.20
2022-08-12T00:03:55.741Z,24.10
2022-08-12T00:06:41.995Z,23.90
2022-08-12T00:09:28.060Z,24.00
2022-08-12T00:12:13.622Z,24.00
2022-08-12T00:15:01.018Z,23.90
2022-08-12T00:17:47.308Z,24.10
2022-08-12T00:20:33.090Z,23.80
2022-08-12T00:23:18.417Z,23.80
2022-08-12T00:26:22.816Z,23.80
2022-08-12T00:29:11.880Z,23.80
2022-08-12T00:32:00.486Z,23.70
2022-08-12T00:34:49.164Z,23.60
2022-08-12T00:37:35.748Z,23.70
2022-08-12T00:40:24.631Z,23.60
2022-08-12T00:42:52.980Z,23.50
2022-08-12T00:45:20.922Z,23.50
2022-08-12T00:47:50.105Z,23.50
2022-08-12T00:50:19.580Z,23.50
2022-08-12T00:52:48.406Z,23.40
2022-08-12T00:55:16.517Z,23.30
2022-08-12T00:57:49.530Z,23.20
2022-08-12T01:00:18.433Z,23.20
2022-08-12T01:02:51.441Z,23.10
2022-08-12T01:05:40.330Z,23.20
2022-08-12T01:08:26.423Z,23.10
2022-08-12T01:11:15.297Z,23.20
2022-08-12T01:13:47.195Z,23.10
2022-08-12T01:16:17.347Z,23.10
2022-08-12T01:18:45.219Z,23.00
2022-08-12T01:21:27.134Z,23.00
2022-08-12T01:23:56.799Z,22.90
2022-08-12T01:26:25.067Z,22.90
2022-08-12T01:28:58.582Z,22.90
2022-08-12T01:31:27.794Z,22.90
2022-08-12T01:34:28.747Z,22.90
2022-08-12T01:37:03.193Z,22.90
2022-08-12T01:40:35.012Z,22.90
2022-08-12T01:42:31.491Z,22.80
2022-08-12T01:44:59.837Z,22.70
2022-08-12T01:47:53.670Z,22.80
2022-08-12T01:50:36.792Z,22.70
2022-08-12T01:53:10.504Z,22.60
2022-08-12T01:55:46.321Z,22.60
2022-08-12T01:58:51.729Z,22.60
2022-08-12T02:01:23.582Z,22.60
2022-08-12T02:04:55.405Z,22.50
2022-08-12T02:07:52.705Z,22.50
2022-08-12T02:11:07.280Z,22.50
2022-08-12T02:14:11.581Z,22.40
2022-08-12T02:16:51.003Z,22.40
2022-08-12T02:20:02.945Z,22.40
2022-08-12T02:22:48.246Z,22.40
2022-08-12T02:25:26.961Z,22.30
2022-08-12T02:27:55.404Z,22.20
2022-08-12T02:30:38.327Z,22.20
2022-08-12T02:33:10.679Z,22.10
2022-08-12T02:35:39.443Z,22.10
2022-08-12T02:38:09.746Z,22.10
2022-08-12T02:40:39.925Z,22.00
2022-08-12T02:43:21.705Z,22.00
2022-08-12T02:46:03.143Z,22.00
2022-08-12T02:48:51.150Z,22.00
2022-08-12T02:51:24.258Z,21.90
2022-08-12T02:54:05.552Z,21.90
2022-08-12T02:56:37.206Z,21.90
2022-08-12T02:59:04.426Z,21.90
2022-08-12T03:01:34.014Z,22.00
2022-08-12T03:04:04.162Z,21.80
2022-08-12T03:06:51.330Z,21.80
2022-08-12T03:09:21.830Z,21.60
2022-08-12T03:11:59.373Z,21.60
2022-08-12T03:14:29.529Z,21.60
2022-08-12T03:17:11.301Z,21.50
2022-08-12T03:20:10.434Z,21.50
2022-08-12T03:22:26.837Z,21.50
2022-08-12T03:24:54.595Z,21.40
2022-08-12T03:27:23.678Z,21.40
2022-08-12T03:29:51.906Z,21.40
2022-08-12T03:32:38.515Z,21.40
2022-08-12T03:35:07.709Z,21.30
2022-08-12T03:37:36.569Z,21.30
2022-08-12T03:40:04.164Z,21.20
2022-08-12T03:42:32.371Z,21.20
2022-08-12T03:45:52.638Z,21.30
2022-08-12T03:48:39.504Z,21.10
2022-08-12T03:51:26.289Z,21.00
2022-08-12T03:54:12.165Z,21.10
2022-08-12T03:56:58.334Z,21.00
2022-08-12T03:59:44.313Z,21.00
2022-08-12T04:02:17.780Z,21.10
2022-08-12T04:04:45.328Z,21.10
2022-08-12T04:07:13.907Z,21.00
2022-08-12T04:09:44.302Z,21.00
2022-08-12T04:12:32.882Z,20.90
2022-08-12T04:15:01.763Z,20.70
2022-08-12T04:17:29.614Z,21.00
2022-08-12T04:19:58.006Z,21.00
2022-08-12T04:22:29.367Z,21.00
2022-08-12T04:25:00.914Z,21.10
2022-08-12T04:27:31.506Z,21.10
2022-08-12T04:30:16.933Z,21.20
2022-08-12T04:32:50.544Z,21.10
2022-08-12T04:35:17.832Z,21.30
2022-08-12T04:37:59.130Z,21.20
2022-08-12T04:40:30.258Z,21.30
2022-08-12T04:42:58.606Z,21.20
2022-08-12T04:45:26.850Z,21.10
2022-08-12T04:47:53.746Z,21.10
2022-08-12T04:50:34.242Z,21.00
2022-08-12T04:53:03.539Z,21.10
2022-08-12T04:55:30.595Z,21.20
2022-08-12T04:57:57.498Z,21.30
2022-08-12T05:00:24.499Z,21.30
2022-08-12T05:02:52.395Z,21.30
2022-08-12T05:05:22.887Z,21.30
2022-08-12T05:07:54.158Z,21.20
2022-08-12T05:10:33.560Z,21.30
2022-08-12T05:13:05.926Z,21.30
2022-08-12T05:15:32.722Z,21.30
2022-08-12T05:17:59.693Z,21.30
2022-08-12T05:20:27.272Z,21.50
2022-08-12T05:23:17.427Z,21.30
2022-08-12T05:25:48.341Z,21.30
2022-08-12T05:28:18.923Z,21.30
2022-08-12T05:30:46.535Z,21.30
2022-08-12T05:33:15.487Z,21.40
2022-08-12T05:35:44.787Z,21.40
2022-08-12T05:38:31.712Z,21.50
2022-08-12T05:40:59.279Z,21.50
2022-08-12T05:43:26.742Z,21.60
2022-08-12T05:45:53.761Z,21.60
2022-08-12T05:48:21.508Z,21.60
2022-08-12T05:50:49.394Z,21.60
2022-08-12T05:53:16.287Z,21.70
2022-08-12T05:55:43.107Z,21.70
2022-08-12T05:58:11.082Z,21.70
2022-08-12T06:00:37.941Z,21.80
2022-08-12T06:03:05.952Z,21.80
2022-08-12T06:05:54.783Z,21.80
2022-08-12T06:08:24.721Z,21.90
2022-08-12T06:10:52.087Z,22.00
2022-08-12T06:13:28.078Z,22.00
2022-08-12T06:16:14.369Z,22.00
2022-08-12T06:18:42.373Z,22.10
2022-08-12T06:21:10.969Z,22.20
2022-08-12T06:23:42.454Z,22.20
2022-08-12T06:26:12.659Z,22.30
2022-08-12T06:28:39.875Z,22.40
2022-08-12T06:31:26.388Z,22.70
2022-08-12T06:34:00.916Z,22.80
2022-08-12T06:36:42.777Z,23.00
2022-08-12T06:39:14.567Z,23.00
2022-08-12T06:42:04.922Z,23.10
2022-08-12T06:44:50.409Z,23.30
2022-08-12T06:47:19.521Z,23.40
2022-08-12T06:49:48.634Z,23.50
2022-08-12T06:52:17.135Z,23.70
2022-08-12T06:54:45.647Z,23.80
2022-08-12T06:58:04.421Z,23.90
2022-08-12T06:59:59.272Z,24.10
2022-08-12T07:02:26.246Z,24.20
2022-08-12T07:04:53.097Z,24.40
2022-08-12T07:07:21.395Z,24.50
2022-08-12T07:10:04.087Z,24.70
2022-08-12T07:12:35.096Z,24.80
2022-08-12T07:15:02.628Z,24.90
2022-08-12T07:17:35.679Z,25.10
2022-08-12T07:20:10.033Z,25.10
2022-08-12T07:22:37.668Z,25.20
2022-08-12T07:25:23.710Z,25.20
2022-08-12T07:27:55.689Z,25.20
2022-08-12T07:30:23.165Z,25.30
2022-08-12T07:32:51.646Z,25.50
2022-08-12T07:35:19.520Z,25.60
2022-08-12T07:37:47.298Z,25.80
2022-08-12T07:40:15.146Z,25.90
2022-08-12T07:42:44.004Z,26.10
2022-08-12T07:45:12.387Z,26.20
2022-08-12T07:47:43.410Z,26.30
2022-08-12T07:50:12.820Z,26.40
2022-08-12T07:52:42.682Z,26.70
2022-08-12T07:55:10.410Z,26.80
2022-08-12T07:57:49.822Z,27.20
2022-08-12T08:00:18.238Z,27.10
2022-08-12T08:02:45.433Z,27.00
2022-08-12T08:05:12.919Z,27.00
2022-08-12T08:07:42.474Z,27.20
2022-08-12T08:10:11.423Z,27.40
2022-08-12T08:12:53.813Z,27.60
2022-08-12T08:16:00.673Z,27.80
2022-08-12T08:18:26.876Z,27.90
2022-08-12T08:20:56.104Z,28.10
2022-08-12T08:23:46.160Z,28.20
2022-08-12T08:26:15.460Z,28.30
2022-08-12T08:28:44.706Z,28.30
2022-08-12T08:31:14.204Z,28.60
2022-08-12T08:34:05.041Z,28.70
2022-08-12T08:36:28.841Z,28.90
2022-08-12T08:38:58.273Z,28.90
2022-08-12T08:42:16.099Z,29.00
2022-08-12T08:44:39.353Z,29.00
2022-08-12T08:47:08.425Z,29.10
2022-08-12T08:49:38.646Z,29.10
2022-08-12T08:52:08.103Z,29.20
2022-08-12T08:54:35.111Z,29.30
2022-08-12T08:57:04.549Z,29.50
2022-08-12T08:59:31.607Z,29.60
2022-08-12T09:02:00.577Z,29.70
2022-08-12T09:05:11.779Z,29.70
2022-08-12T09:07:51.542Z,29.60
2022-08-12T09:10:09.105Z,29.50
2022-08-12T09:13:02.069Z,29.60
2022-08-12T09:15:35.259Z,30.00
2022-08-12T09:18:08.469Z,30.30
2022-08-12T09:20:38.268Z,30.40
2022-08-12T09:23:07.999Z,30.60
2022-08-12T09:25:54.676Z,30.80
2022-08-12T09:28:30.839Z,30.80
2022-08-12T09:30:59.292Z,30.90
2022-08-12T09:34:29.178Z,30.90
2022-08-12T09:36:31.164Z,30.80
2022-08-12T09:40:05.067Z,30.80
2022-08-12T09:42:39.079Z,30.70
2022-08-12T09:45:23.462Z,30.80
2022-08-12T09:47:59.143Z,31.00
2022-08-12T09:50:27.101Z,31.10
2022-08-12T09:53:29.076Z,31.20
2022-08-12T09:56:39.780Z,31.10
2022-08-12T09:58:57.654Z,31.10
2022-08-12T10:01:34.450Z,31.10
2022-08-12T10:04:04.917Z,31.30
2022-08-12T10:06:36.296Z,31.20
2022-08-12T10:09:08.322Z,31.20
2022-08-12T10:12:11.605Z,31.30
2022-08-12T10:14:50.294Z,31.30
2022-08-12T10:17:21.493Z,31.50
2022-08-12T10:19:52.021Z,31.50
2022-08-12T10:22:39.240Z,31.60
2022-08-12T10:26:18.494Z,31.60
2022-08-12T10:28:36.575Z,31.60
2022-08-12T10:31:06.038Z,31.70
2022-08-12T10:33:34.470Z,31.80
2022-08-12T10:36:36.422Z,32.00
2022-08-12T10:40:00.969Z,32.10
2022-08-12T10:42:15.689Z,31.80
2022-08-12T10:44:46.809Z,31.70
2022-08-12T10:47:25.991Z,31.90
2022-08-12T10:50:03.143Z,32.00
2022-08-12T10:52:41.230Z,32.10
2022-08-12T10:55:13.446Z,32.10
2022-08-12T10:58:13.545Z,32.00
2022-08-12T11:00:33.739Z,32.00
2022-08-12T11:04:22.638Z,32.00
2022-08-12T11:07:06.995Z,32.20
2022-08-12T11:08:43.267Z,32.30
2022-08-12T11:11:17.527Z,32.40
2022-08-12T11:13:48.919Z,32.50
2022-08-12T11:16:21.892Z,32.60
2022-08-12T11:18:55.397Z,32.60
2022-08-12T11:21:51.425Z,32.60
2022-08-12T11:24:30.495Z,32.60
2022-08-12T11:27:00.367Z,32.30
2022-08-12T11:30:06.567Z,32.30
2022-08-12T11:32:15.598Z,32.20
2022-08-12T11:34:53.001Z,32.10
2022-08-12T11:37:26.110Z,32.10
2022-08-12T11:42:39.793Z,32.00
2022-08-12T11:45:16.894Z,32.10
2022-08-12T11:47:44.670Z,32.10
2022-08-12T11:50:19.030Z,32.10
2022-08-12T11:53:59.103Z,32.10
2022-08-12T11:55:46.930Z,32.30
2022-08-12T11:59:44.352Z,32.40
2022-08-12T12:03:47.999Z,32.20
2022-08-12T12:06:17.775Z,32.20
2022-08-12T12:08:50.895Z,32.40
2022-08-12T12:11:18.926Z,32.30
2022-08-12T12:14:10.961Z,32.20
2022-08-12T12:16:33.718Z,32.10
2022-08-12T12:19:08.821Z,32.20
2022-08-12T12:21:48.668Z,32.40
2022-08-12T12:24:21.681Z,32.50
2022-08-12T12:26:59.762Z,32.60
2022-08-12T12:30:19.553Z,32.70
2022-08-12T12:32:17.037Z,32.60
2022-08-12T12:36:06.061Z,32.60
2022-08-12T12:38:03.468Z,32.70
2022-08-12T12:40:21.365Z,32.80
2022-08-12T12:42:56.802Z,32.80
2022-08-12T12:45:33.195Z,32.60
2022-08-12T12:48:29.216Z,32.50
2022-08-12T12:51:48.951Z,32.50
2022-08-12T12:54:07.902Z,32.70
2022-08-12T12:56:40.327Z,32.70
2022-08-12T12:59:54.818Z,32.80
2022-08-12T13:02:09.249Z,32.80
2022-08-12T13:04:37.166Z,32.90
2022-08-12T13:07:05.833Z,32.90
2022-08-12T13:09:36.024Z,32.90
2022-08-12T13:12:09.183Z,32.90
2022-08-12T13:14:40.100Z,32.80
2022-08-12T13:17:09.546Z,32.80
2022-08-12T13:19:45.109Z,32.80
2022-08-12T13:22:21.297Z,32.80
2022-08-12T13:24:56.204Z,32.70
2022-08-12T13:27:35.212Z,32.90
2022-08-12T13:30:07.042Z,33.00
2022-08-12T13:33:05.994Z,33.00
2022-08-12T13:36:05.689Z,33.10
2022-08-12T13:38:44.633Z,33.60
2022-08-12T13:41:33.714Z,34.60
2022-08-12T13:44:10.630Z,35.80
2022-08-12T13:46:38.745Z,36.60
2022-08-12T13:49:06.389Z,37.00
2022-08-12T13:51:41.087Z,37.10
2022-08-12T13:54:11.807Z,37.10
2022-08-12T13:56:41.650Z,37.10
2022-08-12T13:59:20.494Z,37.00
2022-08-12T14:01:52.232Z,36.90
2022-08-12T14:04:19.234Z,37.20
2022-08-12T14:06:50.434Z,37.70
2022-08-12T14:09:20.494Z,37.90
2022-08-12T14:11:59.509Z,37.90
2022-08-12T14:14:31.144Z,37.80
2022-08-12T14:17:02.333Z,37.90
2022-08-12T14:19:36.004Z,38.00
2022-08-12T14:22:05.779Z,37.90
2022-08-12T14:24:40.593Z,38.20
2022-08-12T14:27:10.997Z,38.50
2022-08-12T14:30:05.055Z,38.30
2022-08-12T14:32:31.138Z,38.40
2022-08-12T14:34:58.180Z,38.40
2022-08-12T14:37:57.957Z,38.40
2022-08-12T14:40:18.544Z,38.20
2022-08-12T14:42:47.020Z,38.10
2022-08-12T14:45:14.351Z,38.30
2022-08-12T14:47:51.303Z,38.50
2022-08-12T14:50:58.578Z,38.80
2022-08-12T14:59:23.659Z,38.50
2022-08-12T15:02:20.470Z,38.90
2022-08-12T15:04:59.355Z,39.50
2022-08-12T15:07:43.845Z,39.70
2022-08-12T15:10:31.564Z,40.00
2022-08-12T15:13:07.703Z,40.00
2022-08-12T15:15:43.918Z,39.70
2022-08-12T15:18:16.040Z,39.30
2022-08-12T15:20:50.689Z,39.50
2022-08-12T15:23:21.383Z,39.80
2022-08-12T15:26:02.456Z,40.00
2022-08-12T15:28:32.909Z,39.70
2022-08-12T15:31:00.826Z,39.80
2022-08-12T15:33:46.221Z,39.70
2022-08-12T15:36:19.229Z,40.30
2022-08-12T15:38:46.713Z,40.90
2022-08-12T15:41:14.799Z,41.00
2022-08-12T15:44:17.128Z,40.80
2022-08-12T15:46:32.403Z,41.00
2022-08-12T15:48:59.476Z,41.60
2022-08-12T15:51:59.921Z,41.90
2022-08-12T15:54:35.076Z,41.90
2022-08-12T15:57:10.681Z,41.80
2022-08-12T16:00:00.793Z,41.50
2022-08-12T16:07:04.352Z,41.30
2022-08-12T16:09:21.674Z,39.30
2022-08-12T16:12:07.775Z,36.90
2022-08-12T16:14:39.059Z,35.30
2022-08-12T16:17:08.812Z,34.30
2022-08-12T16:20:03.083Z,33.80
2022-08-12T16:22:24.398Z,33.40
2022-08-12T16:24:54.160Z,33.10
2022-08-12T16:27:23.677Z,32.90
2022-08-12T16:29:57.065Z,32.80
2022-08-12T16:32:31.836Z,32.50
2022-08-12T16:35:00.788Z,32.50
2022-08-12T16:38:24.747Z,32.40
2022-08-12T16:40:21.680Z,32.30
2022-08-12T16:42:53.276Z,32.20
2022-08-12T16:45:24.417Z,32.20
2022-08-12T16:48:34.002Z,32.20
2022-08-12T16:51:10.220Z,32.10
2022-08-12T16:53:44.346Z,32.00
2022-08-12T16:56:16.896Z,32.00
2022-08-12T16:58:44.603Z,32.00
2022-08-12T17:01:15.927Z,31.90
2022-08-12T17:03:47.061Z,31.90
2022-08-12T17:06:27.335Z,31.80
2022-08-12T17:09:02.403Z,31.80
2022-08-12T17:11:32.869Z,31.80
2022-08-12T17:14:01.432Z,31.80
2022-08-12T17:16:30.096Z,31.70
2022-08-12T17:18:59.619Z,31.70
2022-08-12T17:21:41.178Z,31.70
2022-08-12T17:24:21.543Z,31.60
2022-08-12T17:26:49.937Z,31.60
2022-08-12T17:29:19.453Z,31.50
2022-08-12T17:32:02.675Z,31.50
2022-08-12T17:34:49.133Z,31.50
2022-08-12T17:37:16.514Z,31.40
2022-08-12T17:40:06.548Z,31.40
2022-08-12T17:42:35.541Z,31.30
2022-08-12T17:45:17.058Z,31.30
2022-08-12T17:48:01.042Z,31.20
2022-08-12T17:50:34.039Z,31.20
2022-08-12T17:53:02.787Z,31.20
2022-08-12T17:55:43.600Z,31.10
2022-08-12T17:58:15.071Z,31.10
2022-08-12T18:00:50.355Z,31.10
2022-08-12T18:04:05.769Z,31.00
2022-08-12T18:06:13.715Z,31.00
2022-08-12T18:08:54.311Z,30.90
2022-08-12T18:12:04.051Z,30.90
2022-08-12T18:14:30.309Z,30.90
2022-08-12T18:17:01.605Z,30.80
2022-08-12T18:19:48.603Z,30.70
2022-08-12T18:22:22.176Z,30.60
2022-08-12T18:26:13.037Z,30.60
2022-08-12T18:28:16.126Z,30.50
2022-08-12T18:30:52.954Z,30.40
2022-08-12T18:33:25.106Z,30.30
2022-08-12T18:35:55.543Z,30.30
2022-08-12T18:38:25.322Z,30.20
2022-08-12T18:41:21.869Z,30.10
2022-08-12T18:44:03.018Z,30.10
2022-08-12T18:46:55.177Z,30.00
2022-08-12T18:49:32.004Z,29.90
2022-08-12T18:52:05.711Z,29.80
2022-08-12T18:54:41.397Z,29.80
2022-08-12T18:57:45.869Z,29.80
2022-08-12T19:00:10.915Z,29.60
2022-08-12T19:02:40.326Z,29.50
2022-08-12T19:05:14.724Z,29.40
2022-08-12T19:08:00.728Z,29.30
2022-08-12T19:10:31.099Z,29.20
2022-08-12T19:13:23.500Z,29.10
2022-08-12T19:15:54.716Z,29.10
2022-08-12T19:18:29.328Z,29.10
2022-08-12T19:20:58.534Z,29.00
2022-08-12T19:23:33.810Z,28.90
2022-08-12T19:26:03.631Z,28.80
2022-08-12T19:28:34.546Z,28.70
2022-08-12T19:31:56.093Z,28.60
2022-08-12T19:35:24.063Z,28.50
2022-08-12T19:38:02.444Z,28.50
2022-08-12T19:40:19.981Z,28.40
2022-08-12T19:42:53.427Z,28.40
2022-08-12T19:45:20.427Z,28.40
2022-08-12T19:47:49.116Z,28.30
2022-08-12T19:50:19.930Z,28.20
2022-08-12T19:52:48.017Z,28.10
2022-08-12T19:55:21.269Z,28.00
2022-08-12T19:58:01.927Z,28.00
2022-08-12T20:00:32.058Z,28.00
2022-08-12T20:03:04.479Z,28.00
2022-08-12T20:06:05.682Z,27.90
2022-08-12T20:08:31.668Z,27.90
2022-08-12T20:12:12.225Z,27.80
2022-08-12T20:14:00.518Z,27.80
2022-08-12T20:16:53.066Z,27.70
2022-08-12T20:19:52.447Z,27.70
2022-08-12T20:22:24.901Z,27.60
2022-08-12T20:25:01.724Z,27.50
2022-08-12T20:28:05.606Z,27.50
2022-08-12T20:30:20.586Z,27.40
2022-08-12T20:33:05.193Z,27.30
2022-08-12T20:36:06.441Z,27.30
2022-08-12T20:38:26.918Z,27.20
2022-08-12T20:40:55.804Z,27.10
2022-08-12T20:43:24.135Z,27.00
2022-08-12T20:45:57.368Z,27.00
2022-08-12T20:48:29.486Z,27.00
2022-08-12T20:51:04.391Z,26.80
2022-08-12T20:53:57.611Z,26.80
2022-08-12T20:56:36.734Z,26.80
2022-08-12T20:59:14.663Z,26.70
2022-08-12T21:01:48.520Z,26.70
2022-08-12T21:04:36.325Z,26.60
2022-08-12T21:07:09.299Z,26.50
2022-08-12T21:09:49.959Z,26.50
2022-08-12T21:12:31.620Z,26.50
2022-08-12T21:15:23.217Z,26.40
2022-08-12T21:18:11.975Z,26.40
2022-08-12T21:20:52.696Z,26.30
2022-08-12T21:23:23.800Z,26.30
2022-08-12T21:25:56.005Z,26.20
2022-08-12T21:28:27.511Z,26.30
2022-08-12T21:31:11.204Z,26.20
2022-08-12T21:33:58.475Z,26.20
2022-08-12T21:36:35.157Z,26.10
2022-08-12T21:39:20.260Z,26.10
2022-08-12T21:41:52.833Z,26.00
2022-08-12T21:45:46.182Z,26.00
2022-08-12T21:47:34.337Z,26.00
2022-08-12T21:50:04.437Z,25.90
2022-08-12T21:52:42.125Z,25.80
2022-08-12T21:55:19.577Z,25.70
2022-08-12T21:57:53.013Z,25.60
2022-08-12T22:00:33.435Z,25.60
2022-08-12T22:04:02.880Z,25.50
2022-08-12T22:06:26.415Z,25.60
2022-08-12T22:09:04.331Z,25.50
2022-08-12T22:11:42.351Z,25.50
2022-08-12T22:14:21.503Z,25.40
2022-08-12T22:16:53.483Z,25.30
2022-08-12T22:19:22.593Z,25.40
2022-08-12T22:21:53.051Z,25.30
2022-08-12T22:24:27.180Z,25.10
2022-08-12T22:27:14.355Z,25.20
2022-08-12T22:30:16.883Z,25.10
2022-08-12T22:32:51.541Z,25.10
2022-08-12T22:35:47.565Z,25.10
2022-08-12T22:38:24.317Z,25.10
2022-08-12T22:40:58.503Z,25.00
2022-08-12T22:44:00.314Z,25.00
2022-08-12T22:46:52.889Z,24.90
2022-08-12T22:49:36.878Z,24.90
2022-08-12T22:52:18.570Z,24.90
2022-08-12T22:55:03.489Z,24.90
2022-08-12T22:57:49.429Z,24.80
2022-08-12T23:00:27.334Z,24.80
2022-08-12T23:03:00.776Z,24.70
2022-08-12T23:05:56.669Z,24.70
2022-08-12T23:08:30.056Z,24.70
2022-08-12T23:11:00.410Z,24.70
2022-08-12T23:13:47.197Z,24.60
2022-08-12T23:16:28.435Z,24.60
2022-08-12T23:19:10.046Z,24.50
2022-08-12T23:22:05.621Z,24.50
2022-08-12T23:24:56.073Z,24.40
2022-08-12T23:27:50.118Z,24.40
2022-08-12T23:30:32.334Z,24.30
2022-08-12T23:33:19.847Z,24.20
2022-08-12T23:36:03.069Z,24.20
2022-08-12T23:38:32.599Z,24.10
2022-08-12T23:41:02.022Z,24.10
2022-08-12T23:43:39.163Z,24.10
2022-08-12T23:46:10.412Z,24.10
2022-08-12T23:48:38.466Z,24.00
2022-08-12T23:51:22.080Z,24.00
2022-08-12T23:53:56.230Z,24.00
2022-08-12T23:56:25.237Z,24.00
2022-08-12T23:58:55.091Z,23.90
